Time;durP1;ratioP1;P1;durP2;ratioP2;P2;SDS_P1;SDS_P2;PMS_P1;PMS_P2;Temp;Humidity;BMP_temperature;BMP_pressure;BME280_temperature;BME280_humidity;BME280_pressure;Samples;Min_cycle;Max_cycle;Signal;HPM_P1;HPM_P2
2022/12/08 04:57:12;;;;;;;2.17;1.10;;;18.00;99.90;;;;;;5931838;23;20543;-76
2022/12/08 04:59:40;;;;;;;1.88;1.50;;;18.00;99.90;;;;;;4975813;28;20227;-75
2022/12/08 05:02:07;;;;;;;1.88;1.40;;;18.00;99.90;;;;;;4975334;28;20207;-75
2022/12/08 05:04:34;;;;;;;1.42;1.33;;;18.00;99.90;;;;;;4975850;28;20206;-77
2022/12/08 05:07:00;;;;;;;3.03;1.25;;;18.00;99.90;;;;;;4975380;28;20233;-73
2022/12/08 05:09:27;;;;;;;1.73;1.20;;;18.00;99.90;;;;;;4975130;28;20210;-75
2022/12/08 05:11:54;;;;;;;1.52;1.20;;;18.00;99.90;;;;;;4975367;28;20206;-74
2022/12/08 05:14:21;;;;;;;1.35;1.25;;;18.10;99.90;;;;;;4975062;28;20285;-74
2022/12/08 05:16:50;;;;;;;1.63;1.15;;;18.10;99.90;;;;;;4979630;28;20227;-72
2022/12/08 05:19:17;;;;;;;10.98;1.60;;;18.00;99.90;;;;;;4976060;28;20242;-72
2022/12/08 05:21:44;;;;;;;6.00;1.27;;;18.00;99.90;;;;;;4974924;28;20213;-73
2022/12/08 05:24:11;;;;;;;5.15;1.50;;;18.00;99.90;;;;;;4974851;28;20207;-73
2022/12/08 05:26:37;;;;;;;3.45;1.35;;;18.00;99.90;;;;;;4974846;28;20227;-75
2022/12/08 05:29:04;;;;;;;6.97;2.10;;;18.00;99.90;;;;;;4974921;28;20210;-76
2022/12/08 05:31:31;;;;;;;8.60;2.03;;;18.00;99.90;;;;;;4975379;28;20203;-76
2022/12/08 05:33:59;;;;;;;14.88;2.47;;;18.00;99.90;;;;;;4975025;28;20209;-76
2022/12/08 05:36:26;;;;;;;7.93;1.77;;;18.10;99.90;;;;;;4975173;28;20651;-76
2022/12/08 05:38:53;;;;;;;8.15;1.90;;;18.00;99.90;;;;;;4975423;28;20203;-75
2022/12/08 05:41:20;;;;;;;8.00;2.30;;;18.00;99.90;;;;;;4975045;28;20230;-74
2022/12/08 05:43:48;;;;;;;12.00;2.70;;;18.00;99.90;;;;;;4974758;28;20207;-75
2022/12/08 05:46:15;;;;;;;21.67;3.60;;;18.00;99.90;;;;;;4974774;28;20214;-74
2022/12/08 05:48:42;;;;;;;12.50;3.10;;;17.90;99.90;;;;;;4974965;28;20202;-74
2022/12/08 05:51:17;;;;;;;13.55;3.33;;;17.90;99.90;;;;;;4975162;28;20210;-75
2022/12/08 05:53:43;;;;;;;12.50;3.47;;;18.00;99.90;;;;;;4974785;28;20634;-76
2022/12/08 05:56:10;;;;;;;12.77;2.67;;;18.00;99.90;;;;;;4974613;28;20207;-74
2022/12/08 05:58:37;;;;;;;31.52;13.85;;;18.00;99.90;;;;;;4974559;28;20199;-75
2022/12/08 06:01:04;;;;;;;25.67;13.57;;;18.10;99.90;;;;;;4974609;28;20234;-75
2022/12/08 06:03:31;;;;;;;40.42;14.43;;;18.10;99.90;;;;;;4974675;28;20233;-75
2022/12/08 06:05:57;;;;;;;31.10;13.82;;;18.00;99.90;;;;;;4974771;28;20198;-74
2022/12/08 06:08:25;;;;;;;36.20;17.17;;;18.10;99.90;;;;;;4974600;28;20205;-75
2022/12/08 06:10:52;;;;;;;34.25;15.60;;;18.00;99.90;;;;;;4974474;28;20199;-71
2022/12/08 06:13:19;;;;;;;42.05;15.00;;;18.00;99.90;;;;;;4976138;28;20203;-72
2022/12/08 10:29:28;;;;;;;6.97;3.20;;;17.60;99.90;;;;;;4999283;28;20240;-78
2022/12/08 10:31:58;;;;;;;12.68;3.38;;;17.60;99.90;;;;;;5001857;28;20241;-79
2022/12/08 10:34:35;;;;;;;10.98;3.20;;;17.60;99.90;;;;;;5003291;28;20210;-77
2022/12/08 10:37:09;;;;;;;10.13;2.78;;;17.60;99.90;;;;;;5002547;28;20217;-78
2022/12/08 10:39:38;;;;;;;7.07;3.20;;;17.60;99.90;;;;;;5016811;23;20243;-72
2022/12/08 10:42:16;;;;;;;10.00;3.20;;;17.70;99.90;;;;;;4977423;28;20674;-72
2022/12/08 10:44:54;;;;;;;15.65;2.80;;;17.60;99.90;;;;;;4977457;28;20278;-72
2022/12/08 10:47:22;;;;;;;7.80;2.65;;;17.60;99.90;;;;;;4977743;28;20192;-72
2022/12/08 10:50:07;;;;;;;7.80;2.97;;;17.60;99.90;;;;;;4977592;28;20230;-72
2022/12/08 10:52:38;;;;;;;5.35;2.60;;;17.60;99.90;;;;;;4977342;28;20643;-72
2022/12/08 10:55:14;;;;;;;11.43;3.30;;;17.60;99.90;;;;;;4977298;28;20184;-72
2022/12/08 10:57:41;;;;;;;10.07;2.63;;;17.70;99.90;;;;;;4977531;28;20241;-72
2022/12/08 11:00:12;;;;;;;10.10;2.50;;;17.70;99.90;;;;;;4976437;28;20726;-72
2022/12/08 11:02:52;;;;;;;16.77;2.83;;;17.60;99.90;;;;;;4977444;28;20194;-72
2022/12/08 11:05:21;;;;;;;7.88;2.72;;;17.60;99.90;;;;;;4977415;28;20210;-72
2022/12/08 11:07:51;;;;;;;12.27;3.33;;;17.60;99.90;;;;;;4977371;28;20207;-72
2022/12/08 11:10:20;;;;;;;13.90;2.67;;;17.60;99.90;;;;;;4977227;28;20334;-71
2022/12/08 11:12:46;;;;;;;14.27;3.03;;;17.60;99.90;;;;;;4977293;28;20206;-72
2022/12/08 11:15:17;;;;;;;13.73;2.88;;;17.60;99.90;;;;;;4977301;28;20209;-73
2022/12/08 11:17:48;;;;;;;17.02;2.88;;;17.60;99.90;;;;;;4982236;28;20214;-72
2022/12/08 11:20:23;;;;;;;8.55;2.80;;;17.60;99.90;;;;;;4982585;28;20219;-72
2022/12/08 11:22:55;;;;;;;7.38;3.08;;;17.60;99.90;;;;;;4981918;28;20207;-72
2022/12/08 11:25:24;;;;;;;10.57;2.72;;;17.60;99.90;;;;;;4982719;28;20271;-72
2022/12/08 11:27:54;;;;;;;15.40;2.60;;;17.60;99.90;;;;;;4983385;28;20294;-72
2022/12/08 11:30:24;;;;;;;18.42;3.30;;;17.60;99.90;;;;;;4982547;28;20225;-72
2022/12/08 11:33:02;;;;;;;13.68;2.95;;;17.60;99.90;;;;;;4982796;28;20267;-72
2022/12/08 11:35:33;;;;;;;11.25;2.95;;;17.60;99.90;;;;;;4982449;28;20219;-73
2022/12/08 11:38:05;;;;;;;16.25;2.85;;;17.60;99.90;;;;;;4982284;28;20189;-73
2022/12/08 11:40:37;;;;;;;12.45;2.80;;;17.60;99.90;;;;;;4981383;28;20227;-73
2022/12/08 11:43:16;;;;;;;8.57;2.60;;;17.60;99.90;;;;;;4981650;28;20250;-73
2022/12/08 11:45:46;;;;;;;7.15;2.40;;;17.60;99.90;;;;;;4982326;28;20694;-74
2022/12/08 11:48:17;;;;;;;8.00;2.55;;;17.60;99.90;;;;;;4977343;28;20207;-73
2022/12/08 11:50:50;;;;;;;8.75;2.70;;;17.60;99.90;;;;;;4982397;28;20222;-73
2022/12/08 11:53:25;;;;;;;8.90;2.60;;;17.60;99.90;;;;;;4982019;28;20187;-73
2022/12/08 11:55:57;;;;;;;19.55;2.72;;;17.60;99.90;;;;;;4982787;28;20191;-73
2022/12/08 11:58:29;;;;;;;13.48;3.03;;;17.60;99.90;;;;;;4982572;28;20701;-73
2022/12/08 12:00:58;;;;;;;13.07;2.35;;;17.60;99.90;;;;;;4982561;28;20254;-73
2022/12/08 12:03:31;;;;;;;14.73;2.88;;;17.60;99.90;;;;;;4982449;28;20714;-72
2022/12/08 12:06:40;;;;;;;9.63;2.72;;;17.50;99.90;;;;;;4982176;28;20191;-72
2022/12/08 12:09:15;;;;;;;11.15;2.63;;;17.50;99.90;;;;;;4981995;28;20191;-72
2022/12/08 12:12:14;;;;;;;9.52;2.53;;;17.40;99.90;;;;;;4980769;28;20194;-73
2022/12/08 12:15:11;;;;;;;11.93;2.60;;;17.50;99.90;;;;;;4981839;28;20294;-72
2022/12/08 12:17:45;;;;;;;6.90;2.00;;;17.50;99.90;;;;;;4981844;28;20187;-71
2022/12/08 12:20:17;;;;;;;9.77;2.28;;;17.50;99.90;;;;;;4981443;28;20223;-72
2022/12/08 12:22:50;;;;;;;4.75;2.28;;;17.50;99.90;;;;;;4980679;28;20187;-73
2022/12/08 12:25:20;;;;;;;5.30;2.15;;;17.50;99.90;;;;;;4980893;28;20187;-74
2022/12/08 12:27:49;;;;;;;9.00;2.85;;;17.50;99.90;;;;;;4981729;28;20188;-74
2022/12/08 12:30:23;;;;;;;10.13;3.15;;;17.60;99.90;;;;;;4980944;28;20277;-73
2022/12/08 12:32:55;;;;;;;10.07;2.42;;;17.60;99.90;;;;;;4981257;28;20210;-72
2022/12/08 12:35:32;;;;;;;5.15;2.65;;;17.40;99.90;;;;;;4981470;28;20195;-72
2022/12/08 12:38:02;;;;;;;13.77;2.63;;;17.60;99.90;;;;;;4979859;28;20246;-73
2022/12/08 12:40:38;;;;;;;11.05;3.08;;;17.60;99.90;;;;;;4975267;28;20235;-72
2022/12/08 12:43:14;;;;;;;8.45;3.10;;;17.60;99.90;;;;;;4975610;28;20582;-72
2022/12/08 12:45:42;;;;;;;12.65;3.67;;;17.60;99.90;;;;;;4975207;28;20199;-73
2022/12/08 12:48:27;;;;;;;12.52;3.33;;;17.60;99.90;;;;;;4975268;28;20753;-73
2022/12/08 12:50:55;;;;;;;23.58;3.88;;;17.60;99.90;;;;;;4975420;28;20215;-72
2022/12/08 12:53:48;;;;;;;15.32;3.75;;;17.60;99.90;;;;;;4975139;28;20658;-73
2022/12/08 12:56:49;;;;;;;10.40;3.15;;;17.60;99.90;;;;;;4975411;28;20204;-72
2022/12/08 12:59:39;;;;;;;16.17;3.97;;;17.60;99.90;;;;;;4974957;28;20650;-73
2022/12/08 13:02:19;;;;;;;17.20;3.75;;;17.60;99.90;;;;;;4975226;28;20215;-73
2022/12/08 13:04:56;;;;;;;12.85;3.65;;;17.70;99.90;;;;;;4975275;28;20187;-73
2022/12/08 13:07:26;;;;;;;9.82;3.72;;;17.70;99.90;;;;;;4975270;28;20183;-73
2022/12/08 13:10:00;;;;;;;13.20;3.45;;;17.60;99.90;;;;;;4975065;28;20231;-73
2022/12/08 13:12:28;;;;;;;11.98;3.78;;;17.60;99.90;;;;;;4975186;28;20230;-73
2022/12/08 13:15:00;;;;;;;17.83;3.88;;;17.70;99.90;;;;;;4975103;28;20208;-72
2022/12/08 13:17:30;;;;;;;17.10;3.88;;;17.60;99.90;;;;;;4974783;28;20187;-74
2022/12/08 13:20:01;;;;;;;8.68;3.38;;;17.60;99.90;;;;;;4975279;28;20230;-74
2022/12/08 13:22:48;;;;;;;10.00;3.60;;;17.60;99.90;;;;;;4974443;28;20678;-73
2022/12/08 13:25:47;;;;;;;9.10;3.53;;;17.60;99.90;;;;;;4975064;28;20578;-73
2022/12/08 13:28:18;;;;;;;15.00;3.67;;;17.60;99.90;;;;;;4974940;28;20187;-74
2022/12/08 13:30:46;;;;;;;16.20;4.00;;;17.60;99.90;;;;;;4974919;28;20226;-74
2022/12/08 13:33:18;;;;;;;15.77;4.00;;;17.60;99.90;;;;;;4974886;28;20298;-74
2022/12/08 13:36:04;;;;;;;14.88;3.92;;;17.60;99.90;;;;;;4974914;28;20192;-73
2022/12/08 13:38:34;;;;;;;14.57;3.75;;;17.70;99.90;;;;;;4962299;28;20203;-72
2022/12/08 13:41:06;;;;;;;16.88;3.65;;;17.60;99.90;;;;;;4974367;28;20230;-72
2022/12/08 13:43:41;;;;;;;11.68;3.85;;;17.60;99.90;;;;;;4974759;28;20191;-72
2022/12/08 13:46:10;;;;;;;11.95;3.53;;;17.60;99.90;;;;;;4974806;28;20193;-72
2022/12/08 13:48:45;;;;;;;8.82;3.40;;;17.60;99.90;;;;;;4974727;28;20238;-72
2022/12/08 13:51:16;;;;;;;14.63;3.63;;;17.60;99.90;;;;;;4974662;28;20222;-72
2022/12/08 13:53:47;;;;;;;17.05;3.80;;;17.70;99.90;;;;;;4974730;28;20200;-74
2022/12/08 13:56:15;;;;;;;12.50;3.58;;;17.60;99.90;;;;;;4974696;28;20210;-74
2022/12/08 13:58:42;;;;;;;12.07;3.45;;;17.70;99.90;;;;;;4974610;28;20202;-74
2022/12/08 14:01:15;;;;;;;14.32;3.53;;;17.60;99.90;;;;;;4974212;28;20690;-73
2022/12/08 14:03:51;;;;;;;15.02;3.47;;;17.60;99.90;;;;;;4974631;28;20267;-73
2022/12/08 14:06:25;;;;;;;11.65;3.53;;;17.60;99.90;;;;;;4974321;28;20706;-74
2022/12/08 14:08:55;;;;;;;15.70;3.92;;;17.60;99.90;;;;;;4974552;28;20206;-74
2022/12/08 14:11:33;;;;;;;13.93;3.65;;;17.60;99.90;;;;;;4974461;28;20219;-74
2022/12/08 14:14:07;;;;;;;11.07;2.97;;;17.60;99.90;;;;;;4974539;28;20195;-74
2022/12/08 14:16:38;;;;;;;13.18;3.53;;;17.60;99.90;;;;;;4974511;28;20191;-73
2022/12/08 14:19:16;;;;;;;16.67;3.70;;;17.60;99.90;;;;;;4974211;28;20643;-73
2022/12/08 14:21:51;;;;;;;17.95;3.88;;;17.60;99.90;;;;;;4974469;28;20258;-73
2022/12/08 14:24:17;;;;;;;8.82;3.05;;;17.60;99.90;;;;;;4974483;28;20278;-73
2022/12/08 14:26:46;;;;;;;12.88;3.47;;;17.60;99.90;;;;;;4974437;28;20214;-73
2022/12/08 14:29:37;;;;;;;16.00;4.25;;;17.60;99.90;;;;;;4974329;28;20207;-74
2022/12/08 14:32:05;;;;;;;19.73;3.47;;;17.50;99.90;;;;;;4974395;28;20187;-73
2022/12/08 14:34:39;;;;;;;15.40;3.13;;;17.50;99.90;;;;;;4976268;28;20203;-73
2022/12/08 14:37:11;;;;;;;12.40;2.92;;;17.60;99.90;;;;;;4977931;28;20191;-73
2022/12/08 14:39:39;;;;;;;12.20;3.42;;;17.50;99.90;;;;;;4977682;28;20243;-73
2022/12/08 14:42:06;;;;;;;16.55;3.38;;;17.60;99.90;;;;;;4977486;28;20574;-73
2022/12/08 14:44:38;;;;;;;21.45;3.95;;;17.50;99.90;;;;;;4977722;28;20230;-73
2022/12/08 14:47:06;;;;;;;27.98;4.60;;;17.50;99.90;;;;;;4977454;28;20644;-73
2022/12/08 14:49:34;;;;;;;32.97;4.25;;;17.60;99.90;;;;;;4977933;28;20231;-72
2022/12/08 14:52:01;;;;;;;21.67;3.92;;;17.70;99.90;;;;;;4977756;28;20199;-73
2022/12/08 14:54:31;;;;;;;30.67;3.67;;;17.90;99.90;;;;;;4977768;28;20202;-72
2022/12/08 14:57:01;;;;;;;20.63;3.78;;;18.00;99.90;;;;;;4977564;28;20218;-73
2022/12/08 14:59:30;;;;;;;22.17;3.75;;;18.10;99.90;;;;;;4977164;28;20223;-72
2022/12/08 15:02:23;;;;;;;20.23;3.60;;;18.20;99.90;;;;;;4977413;28;20229;-72
2022/12/08 15:04:56;;;;;;;14.50;3.10;;;18.30;99.90;;;;;;4977453;28;20274;-72
2022/12/08 15:07:25;;;;;;;28.63;3.53;;;18.40;99.90;;;;;;4977364;28;20191;-73
2022/12/08 15:10:10;;;;;;;21.30;3.75;;;18.50;99.90;;;;;;4978047;28;20222;-74
2022/12/08 15:12:37;;;;;;;13.20;3.72;;;18.60;99.90;;;;;;4977415;28;20198;-73
2022/12/08 15:15:16;;;;;;;23.05;4.05;;;18.60;99.90;;;;;;4977279;28;20199;-74
2022/12/08 15:17:45;;;;;;;28.70;3.42;;;18.70;99.90;;;;;;4976895;28;20597;-73
2022/12/08 15:20:26;;;;;;;16.52;3.50;;;18.70;99.90;;;;;;4977082;28;20226;-74
2022/12/08 15:22:54;;;;;;;19.90;3.72;;;18.70;99.90;;;;;;4977025;28;20214;-74
2022/12/08 15:25:23;;;;;;;11.15;2.72;;;18.80;99.90;;;;;;4977029;28;20242;-74
2022/12/08 15:27:51;;;;;;;12.13;2.63;;;18.90;99.90;;;;;;4977013;28;20206;-74
2022/12/08 15:30:19;;;;;;;12.50;3.15;;;18.90;99.90;;;;;;4976869;28;20222;-74
2022/12/08 15:32:46;;;;;;;12.23;3.00;;;19.00;99.90;;;;;;4977629;28;20553;-74
2022/12/08 15:35:13;;;;;;;8.63;2.75;;;19.10;99.90;;;;;;4976796;28;20570;-76
2022/12/08 15:37:40;;;;;;;8.82;2.67;;;19.10;99.90;;;;;;4977266;28;20574;-75
2022/12/08 15:40:15;;;;;;;12.38;2.53;;;19.10;99.90;;;;;;4977450;28;20317;-76
2022/12/08 15:42:43;;;;;;;10.00;2.58;;;19.10;99.90;;;;;;4977113;28;20206;-76
2022/12/08 15:45:13;;;;;;;15.43;2.72;;;19.30;99.90;;;;;;4977282;28;20209;-77
2022/12/08 15:47:41;;;;;;;14.90;3.35;;;19.30;99.90;;;;;;4977269;28;20198;-76
2022/12/08 15:50:16;;;;;;;9.52;2.92;;;19.30;99.90;;;;;;4977251;28;20230;-77
2022/12/08 15:52:43;;;;;;;10.18;2.70;;;19.40;99.90;;;;;;4978091;28;20190;-74
2022/12/08 15:55:13;;;;;;;10.23;2.30;;;19.50;99.90;;;;;;4977528;28;20203;-73
2022/12/08 15:57:43;;;;;;;6.65;2.20;;;19.50;99.90;;;;;;4976557;28;20738;-73
2022/12/08 16:00:26;;;;;;;10.50;2.30;;;19.40;99.90;;;;;;4976697;28;20223;-74
2022/12/08 16:02:52;;;;;;;8.02;1.83;;;19.50;99.90;;;;;;4976593;28;20213;-73
2022/12/08 16:05:20;;;;;;;12.10;2.70;;;19.40;99.90;;;;;;4976689;28;20203;-73
2022/12/08 16:07:47;;;;;;;6.18;2.33;;;19.50;99.90;;;;;;4976921;28;20207;-77
2022/12/08 16:10:17;;;;;;;9.18;2.00;;;19.60;99.90;;;;;;4976979;28;20242;-77
2022/12/08 16:15:31;;;;;;;12.80;2.58;;;19.50;99.90;;;;;;4976036;28;20186;-77
2022/12/08 16:17:58;;;;;;;6.78;2.35;;;19.50;99.90;;;;;;4975830;28;20203;-77
2022/12/08 16:20:25;;;;;;;9.07;2.30;;;19.50;99.90;;;;;;4976104;28;20594;-77
2022/12/08 16:22:52;;;;;;;9.00;2.20;;;19.30;99.90;;;;;;4976262;28;20226;-77
2022/12/08 16:25:19;;;;;;;9.38;2.08;;;19.30;99.90;;;;;;4975943;28;20198;-77
2022/12/08 16:27:46;;;;;;;13.35;2.10;;;19.20;99.90;;;;;;4975876;28;20199;-76
2022/12/08 16:30:16;;;;;;;8.05;2.50;;;19.20;99.90;;;;;;4975474;28;20729;-77
2022/12/08 16:32:44;;;;;;;6.43;1.77;;;19.10;99.90;;;;;;4975520;28;20546;-77
2022/12/08 16:35:12;;;;;;;7.35;2.30;;;19.00;99.90;;;;;;4975739;28;20233;-77
2022/12/08 16:37:40;;;;;;;2.88;2.20;;;19.00;99.90;;;;;;4975416;28;20569;-77
2022/12/08 16:40:08;;;;;;;6.90;2.28;;;18.90;99.90;;;;;;4975806;28;20230;-76
2022/12/08 16:42:38;;;;;;;6.43;1.90;;;18.80;99.90;;;;;;4975196;28;20223;-77
2022/12/08 16:45:07;;;;;;;4.97;1.73;;;18.80;99.90;;;;;;4975562;28;20253;-77
2022/12/08 16:47:34;;;;;;;1.77;1.67;;;18.70;99.90;;;;;;4975054;28;20566;-77
2022/12/08 16:50:05;;;;;;;5.78;1.70;;;18.70;99.90;;;;;;4975519;28;20328;-77
2022/12/08 16:52:32;;;;;;;3.80;1.77;;;18.60;99.90;;;;;;4975856;28;20631;-77
2022/12/08 16:54:59;;;;;;;3.35;1.63;;;18.70;99.90;;;;;;4975944;28;20203;-77
2022/12/08 16:57:26;;;;;;;7.30;2.05;;;18.50;99.90;;;;;;4975202;28;20213;-77
2022/12/08 16:59:52;;;;;;;3.88;1.95;;;18.50;99.90;;;;;;4975447;28;20226;-78
2022/12/08 17:02:19;;;;;;;8.00;1.77;;;18.50;99.90;;;;;;4976128;28;20222;-77
2022/12/08 17:04:46;;;;;;;10.18;1.80;;;18.50;99.90;;;;;;4975415;28;20203;-77
2022/12/08 17:07:15;;;;;;;3.97;2.20;;;18.40;99.90;;;;;;4975458;28;20198;-77
2022/12/08 17:09:42;;;;;;;5.20;1.70;;;18.60;99.90;;;;;;4975129;28;20262;-76
2022/12/08 17:12:09;;;;;;;10.00;2.40;;;18.60;99.90;;;;;;4975169;28;20578;-76
2022/12/08 17:14:36;;;;;;;3.67;1.77;;;18.70;99.90;;;;;;4974829;28;20202;-76
2022/12/08 17:17:03;;;;;;;4.47;2.05;;;18.90;99.90;;;;;;4975143;28;20213;-76
2022/12/08 17:19:29;;;;;;;2.95;1.73;;;19.10;99.90;;;;;;4975076;28;20286;-76
2022/12/08 17:21:56;;;;;;;10.32;1.65;;;19.20;99.90;;;;;;4976113;28;20206;-76
2022/12/08 17:24:27;;;;;;;6.97;2.13;;;19.40;99.90;;;;;;4975214;28;20199;-77
2022/12/08 17:26:54;;;;;;;6.55;1.50;;;19.50;99.90;;;;;;4976811;28;20190;-78
2022/12/08 17:29:21;;;;;;;4.78;1.70;;;19.60;99.90;;;;;;4976817;28;20217;-76
2022/12/08 17:31:48;;;;;;;2.47;1.92;;;19.60;99.90;;;;;;4975660;28;20211;-76
2022/12/08 17:34:15;;;;;;;9.77;1.98;;;19.60;99.90;;;;;;4976277;28;20566;-76
2022/12/08 17:36:41;;;;;;;5.00;2.10;;;19.70;99.90;;;;;;4975127;28;20203;-76
2022/12/08 17:39:08;;;;;;;4.40;1.75;;;19.70;99.90;;;;;;4974480;28;20671;-75
2022/12/08 17:41:36;;;;;;;11.20;1.80;;;19.80;99.90;;;;;;4974842;28;20235;-76
2022/12/08 17:44:09;;;;;;;5.75;1.92;;;19.80;99.90;;;;;;4974676;28;20223;-77
2022/12/08 17:46:36;;;;;;;6.63;2.28;;;19.80;99.90;;;;;;4974810;28;20187;-76
2022/12/08 17:49:07;;;;;;;3.90;1.90;;;19.80;99.90;;;;;;4974761;28;20202;-76
2022/12/08 17:51:34;;;;;;;9.57;2.00;;;19.80;99.90;;;;;;4974801;28;20195;-76
2022/12/08 17:54:01;;;;;;;4.20;1.70;;;19.80;99.90;;;;;;4974695;28;20202;-76
2022/12/08 17:56:27;;;;;;;6.82;1.70;;;19.70;99.90;;;;;;4974363;28;20658;-75
2022/12/08 17:58:55;;;;;;;2.28;1.67;;;19.80;99.90;;;;;;4975331;28;20207;-77
2022/12/08 18:01:23;;;;;;;6.22;2.45;;;19.80;99.90;;;;;;4976349;28;20306;-77
2022/12/08 18:03:50;;;;;;;4.47;2.22;;;19.80;99.90;;;;;;4978046;28;20256;-74
2022/12/08 18:06:17;;;;;;;11.75;2.28;;;20.00;99.90;;;;;;4978032;28;20210;-73
2022/12/08 18:08:44;;;;;;;5.68;2.00;;;20.00;99.90;;;;;;4978994;28;20203;-74
2022/12/08 18:11:12;;;;;;;2.35;1.98;;;20.00;99.90;;;;;;4981355;28;20222;-74
2022/12/08 18:13:39;;;;;;;6.57;1.83;;;20.00;99.90;;;;;;4981656;28;20203;-74
2022/12/08 18:16:08;;;;;;;7.88;2.15;;;20.00;99.90;;;;;;4980976;28;20199;-74
2022/12/08 18:18:34;;;;;;;8.00;2.10;;;20.10;99.90;;;;;;4981315;28;20213;-73
2022/12/08 18:21:01;;;;;;;4.43;1.80;;;20.20;99.90;;;;;;4980844;28;20359;-74
2022/12/08 18:23:28;;;;;;;7.68;1.92;;;20.30;99.90;;;;;;4980493;28;20726;-74
2022/12/08 18:25:54;;;;;;;7.90;2.45;;;20.20;99.90;;;;;;4981689;28;20210;-74
2022/12/08 18:28:22;;;;;;;7.55;1.88;;;20.30;99.90;;;;;;4981628;28;20210;-74
2022/12/08 18:30:49;;;;;;;7.68;1.98;;;20.30;99.90;;;;;;4980465;28;20222;-74
2022/12/08 18:33:17;;;;;;;6.65;2.00;;;20.40;99.90;;;;;;4981310;28;20205;-74
2022/12/08 18:35:44;;;;;;;6.50;2.55;;;20.50;99.90;;;;;;4978958;28;20206;-74
2022/12/08 18:38:11;;;;;;;6.53;1.95;;;20.50;99.90;;;;;;4978708;28;20213;-75
2022/12/08 18:40:37;;;;;;;7.85;2.30;;;20.40;99.90;;;;;;4979589;28;20235;-76
2022/12/08 18:43:04;;;;;;;4.40;1.90;;;20.40;99.90;;;;;;4979516;28;20233;-77
2022/12/08 18:45:31;;;;;;;7.93;2.30;;;20.40;99.90;;;;;;4978919;28;20199;-75
2022/12/08 18:47:58;;;;;;;5.47;1.98;;;20.50;99.90;;;;;;4979984;28;20229;-75
2022/12/08 18:50:26;;;;;;;7.13;2.00;;;20.70;99.90;;;;;;4981015;28;20230;-76
2022/12/08 18:52:53;;;;;;;7.35;2.70;;;20.70;99.90;;;;;;4982951;28;20210;-76
2022/12/08 18:55:20;;;;;;;9.10;2.45;;;20.50;99.90;;;;;;4983024;28;20187;-74
2022/12/08 18:57:46;;;;;;;6.88;2.17;;;20.60;99.90;;;;;;4984106;28;20205;-75
2022/12/08 19:00:16;;;;;;;5.80;2.03;;;20.60;99.90;;;;;;4983896;28;20689;-76
2022/12/08 19:02:43;;;;;;;4.35;1.80;;;20.50;99.90;;;;;;4982853;28;20223;-75
2022/12/08 19:05:12;;;;;;;9.20;2.25;;;20.60;99.90;;;;;;4983960;28;20270;-75
2022/12/08 19:07:41;;;;;;;9.65;2.85;;;20.70;99.90;;;;;;4984616;28;20207;-75
2022/12/08 19:10:08;;;;;;;8.73;2.17;;;20.60;99.90;;;;;;4984557;28;20246;-75
2022/12/08 19:12:35;;;;;;;7.32;2.13;;;20.60;99.90;;;;;;4981301;28;20199;-73
2022/12/08 19:15:02;;;;;;;6.00;2.50;;;20.70;99.90;;;;;;4979148;28;20678;-71
2022/12/08 19:17:29;;;;;;;5.32;2.15;;;20.70;99.90;;;;;;4978333;28;20207;-74
2022/12/08 19:19:56;;;;;;;4.38;2.22;;;20.60;99.90;;;;;;4976442;28;20254;-73
2022/12/08 19:22:23;;;;;;;12.10;2.38;;;20.60;99.90;;;;;;4977893;28;20213;-74
2022/12/08 19:24:51;;;;;;;18.27;2.10;;;20.60;99.90;;;;;;4977830;28;20204;-74
2022/12/08 19:27:17;;;;;;;4.63;2.20;;;20.60;99.90;;;;;;4977952;28;20222;-77
2022/12/08 19:29:44;;;;;;;5.35;2.17;;;20.60;99.90;;;;;;4979007;28;20587;-78
2022/12/08 19:32:12;;;;;;;6.90;2.25;;;20.60;99.90;;;;;;4978952;28;20203;-77
2022/12/08 19:34:38;;;;;;;7.88;2.35;;;20.60;99.90;;;;;;4976654;28;20635;-76
2022/12/08 19:37:05;;;;;;;3.78;1.77;;;20.60;99.90;;;;;;4976852;28;20207;-76
2022/12/08 19:45:16;;;;;;;5.07;2.00;;;20.40;99.90;;;;;;4970259;28;20263;-76
2022/12/08 19:47:43;;;;;;;6.70;2.30;;;20.50;99.90;;;;;;4976534;28;20210;-76
2022/12/08 19:52:57;;;;;;;3.72;2.40;;;20.50;99.90;;;;;;4976380;28;20182;-76
2022/12/08 19:55:24;;;;;;;4.22;2.28;;;20.60;99.90;;;;;;4976458;28;20206;-76
2022/12/08 19:57:53;;;;;;;10.18;2.58;;;20.70;99.90;;;;;;4976444;28;20207;-76
2022/12/08 20:00:21;;;;;;;14.18;3.00;;;20.70;99.90;;;;;;4976378;28;20223;-76
2022/12/08 20:02:48;;;;;;;4.78;2.13;;;20.60;99.90;;;;;;4977852;28;20682;-76
2022/12/08 20:05:15;;;;;;;4.47;1.83;;;20.70;99.90;;;;;;4978930;28;20202;-75
2022/12/08 20:07:42;;;;;;;5.25;1.63;;;20.50;99.90;;;;;;4976306;28;20240;-74
2022/12/08 20:10:25;;;;;;;12.18;2.92;;;20.40;99.90;;;;;;4981432;28;20223;-77
2022/12/08 20:15:58;;;;;;;13.60;2.40;;;20.30;99.90;;;;;;4976228;28;20183;-75
2022/12/08 20:18:27;;;;;;;10.50;2.33;;;20.20;99.90;;;;;;4975989;28;20225;-75
2022/12/08 20:20:54;;;;;;;13.27;2.83;;;20.20;99.90;;;;;;4975698;28;20630;-76
2022/12/08 20:23:20;;;;;;;4.63;2.30;;;20.10;99.90;;;;;;4976000;28;20230;-76
2022/12/08 20:25:47;;;;;;;7.82;2.47;;;20.00;99.90;;;;;;4975978;28;20230;-75
2022/12/08 20:28:17;;;;;;;11.95;2.47;;;20.00;99.90;;;;;;4975894;28;20222;-75
2022/12/08 20:30:45;;;;;;;7.57;2.75;;;19.90;99.90;;;;;;4975355;28;20277;-76
2022/12/08 20:33:13;;;;;;;9.23;2.58;;;19.80;99.90;;;;;;4975338;28;20257;-76
2022/12/08 20:35:40;;;;;;;5.38;2.80;;;19.80;99.90;;;;;;4975487;28;20690;-76
2022/12/08 20:38:07;;;;;;;11.50;2.83;;;19.70;99.90;;;;;;4975681;28;20214;-76
2022/12/08 20:40:34;;;;;;;6.18;2.80;;;19.70;99.90;;;;;;4975371;28;20230;-76
2022/12/08 20:43:00;;;;;;;6.72;2.63;;;19.60;99.90;;;;;;4975617;28;20253;-76
2022/12/08 20:45:29;;;;;;;9.55;2.78;;;19.70;99.90;;;;;;4975623;28;20209;-76
2022/12/08 20:47:55;;;;;;;14.30;2.40;;;19.50;99.90;;;;;;4975584;28;20217;-76
2022/12/08 20:50:22;;;;;;;7.22;2.67;;;19.50;99.90;;;;;;4975494;28;20242;-76
2022/12/08 20:52:49;;;;;;;8.00;2.65;;;19.30;99.90;;;;;;4975571;28;20199;-75
2022/12/08 20:55:15;;;;;;;7.53;2.75;;;19.40;99.90;;;;;;4975559;28;20207;-76
2022/12/08 20:57:42;;;;;;;5.22;2.22;;;19.40;99.90;;;;;;4975659;28;20206;-76
2022/12/08 21:00:11;;;;;;;4.97;2.35;;;19.30;99.90;;;;;;4975282;28;20226;-76
2022/12/08 21:02:39;;;;;;;4.35;2.35;;;19.20;99.90;;;;;;4975295;28;20207;-75
2022/12/08 21:05:07;;;;;;;6.90;2.40;;;19.20;99.90;;;;;;4975321;28;20199;-74
2022/12/08 21:07:34;;;;;;;8.30;2.78;;;19.10;99.90;;;;;;4975302;28;20206;-74
2022/12/08 21:10:02;;;;;;;8.27;2.67;;;19.20;99.90;;;;;;4974866;28;20223;-74
2022/12/08 21:12:31;;;;;;;9.57;2.30;;;19.20;99.90;;;;;;4975260;28;20245;-74
2022/12/08 21:14:57;;;;;;;11.25;3.22;;;19.30;99.90;;;;;;4975199;28;20226;-72
2022/12/08 21:17:24;;;;;;;6.20;2.08;;;19.20;99.90;;;;;;4975161;28;20199;-72
2022/12/08 21:19:52;;;;;;;9.40;2.70;;;19.20;99.90;;;;;;4974864;28;20222;-73
2022/12/08 21:22:19;;;;;;;3.63;2.42;;;19.10;99.90;;;;;;4975424;28;20210;-73
2022/12/08 21:24:46;;;;;;;5.20;2.45;;;19.10;99.90;;;;;;4974990;28;20238;-73
2022/12/08 21:27:13;;;;;;;7.85;3.28;;;19.10;99.90;;;;;;4974689;28;20219;-73
2022/12/08 21:29:40;;;;;;;6.97;2.85;;;19.20;99.90;;;;;;4974701;28;20234;-73
2022/12/08 21:32:07;;;;;;;9.75;3.10;;;19.10;99.90;;;;;;4976064;28;20206;-73
2022/12/08 21:34:34;;;;;;;6.35;2.25;;;19.10;99.90;;;;;;4975267;28;20242;-73
2022/12/08 21:37:02;;;;;;;4.60;2.40;;;19.10;99.90;;;;;;4975038;28;20217;-73
2022/12/08 21:39:29;;;;;;;10.13;2.80;;;19.20;99.90;;;;;;4974804;28;20243;-73
2022/12/08 21:44:40;;;;;;;6.88;2.72;;;19.10;99.90;;;;;;4981474;28;20257;-73
2022/12/08 21:47:07;;;;;;;9.07;3.03;;;19.10;99.90;;;;;;4981352;28;20213;-73
2022/12/08 21:49:34;;;;;;;5.43;2.92;;;19.10;99.90;;;;;;4981453;28;20226;-73
2022/12/08 21:52:02;;;;;;;9.85;3.05;;;19.10;99.90;;;;;;4981644;28;20199;-73
2022/12/08 21:54:29;;;;;;;6.47;2.80;;;19.20;99.90;;;;;;4981134;28;20203;-73
2022/12/08 21:56:56;;;;;;;13.25;3.47;;;19.00;99.90;;;;;;4981258;28;20215;-73
2022/12/08 21:59:23;;;;;;;3.13;2.30;;;19.10;99.90;;;;;;4981285;28;20206;-73
2022/12/08 22:01:50;;;;;;;6.15;2.80;;;19.10;99.90;;;;;;4981403;28;20203;-73
2022/12/08 22:04:20;;;;;;;5.07;2.65;;;19.00;99.90;;;;;;4981236;28;20226;-73
2022/12/08 22:06:46;;;;;;;3.15;2.60;;;19.10;99.90;;;;;;4980806;28;20626;-73
2022/12/08 22:09:14;;;;;;;7.20;2.85;;;18.90;99.90;;;;;;4980985;28;20206;-73
2022/12/08 22:11:41;;;;;;;5.53;2.92;;;19.00;99.90;;;;;;4981012;28;20202;-73
2022/12/08 22:14:08;;;;;;;8.57;2.95;;;19.00;99.90;;;;;;4980999;28;20199;-73
2022/12/08 22:16:35;;;;;;;8.02;2.83;;;19.00;99.90;;;;;;4980960;28;20198;-73
2022/12/08 22:19:02;;;;;;;4.25;2.60;;;18.90;99.90;;;;;;4980981;28;20203;-73
2022/12/08 22:21:28;;;;;;;6.88;2.80;;;19.00;99.90;;;;;;4980857;28;20226;-72
2022/12/08 22:23:55;;;;;;;5.20;2.30;;;19.00;99.90;;;;;;4980828;28;20233;-73